Time;durP1;ratioP1;P1;durP2;ratioP2;P2;SDS_P1;SDS_P2;PMS_P1;PMS_P2;Temp;Humidity;BMP_temperature;BMP_pressure;BME280_temperature;BME280_humidity;BME280_pressure;Samples;Min_cycle;Max_cycle;Signal;HPM_P1;HPM_P2
2022/11/24 00:01:24;;;;;;;26.37;14.17;;;-0.60;99.90;;;;;;5007886;28;20594;-67
2022/11/24 00:03:54;;;;;;;29.10;15.00;;;-0.60;99.90;;;;;;5005496;28;20207;-64
2022/11/24 00:06:21;;;;;;;30.40;14.83;;;-0.60;99.90;;;;;;5007597;28;20207;-65
2022/11/24 00:08:48;;;;;;;28.40;13.50;;;-0.60;99.90;;;;;;5007935;28;20299;-66
2022/11/24 00:11:19;;;;;;;28.37;13.20;;;-0.60;99.90;;;;;;5006423;28;20199;-65
2022/11/24 00:13:46;;;;;;;29.90;14.87;;;-0.50;99.90;;;;;;5003735;28;20218;-64
2022/11/24 00:16:14;;;;;;;25.27;13.30;;;-0.50;99.90;;;;;;5004366;28;20211;-65
2022/11/24 00:18:42;;;;;;;29.20;14.30;;;-0.60;99.90;;;;;;5004093;28;20203;-65
2022/11/24 00:21:09;;;;;;;25.90;14.07;;;-0.10;99.90;;;;;;5007011;28;20261;-66
2022/11/24 00:23:36;;;;;;;24.03;13.33;;;-0.60;99.90;;;;;;5007115;28;20601;-64
2022/11/24 00:26:05;;;;;;;24.53;13.60;;;-0.60;99.90;;;;;;5008195;28;20586;-65
2022/11/24 00:28:34;;;;;;;25.47;12.53;;;-0.60;99.90;;;;;;5007991;28;20207;-64
2022/11/24 00:31:01;;;;;;;27.10;13.80;;;-0.60;99.90;;;;;;5007251;28;20215;-65
2022/11/24 00:33:28;;;;;;;29.07;14.10;;;-0.60;99.90;;;;;;5008749;28;20773;-65
2022/11/24 00:35:56;;;;;;;27.20;13.63;;;-0.50;99.90;;;;;;5007501;28;20647;-65
2022/11/24 00:38:22;;;;;;;24.00;13.47;;;-0.50;99.90;;;;;;4997807;28;20207;-66
2022/11/24 00:40:49;;;;;;;21.90;12.40;;;-0.50;99.90;;;;;;5005955;28;20210;-65
2022/11/24 00:43:16;;;;;;;25.07;12.83;;;-0.50;99.90;;;;;;5006236;28;20207;-65
2022/11/24 00:45:44;;;;;;;24.53;12.63;;;-0.50;99.90;;;;;;5008554;28;20203;-65
2022/11/24 00:48:11;;;;;;;24.43;12.43;;;-0.40;99.90;;;;;;5007939;28;20218;-64
2022/11/24 00:50:38;;;;;;;26.53;13.40;;;-0.40;99.90;;;;;;5008645;28;20208;-65
2022/11/24 00:53:05;;;;;;;25.33;12.73;;;-0.40;99.90;;;;;;5007986;28;20211;-64
2022/11/24 00:55:31;;;;;;;26.43;14.10;;;-0.40;99.90;;;;;;5007163;28;20226;-65
2022/11/24 00:57:58;;;;;;;26.27;14.03;;;-0.40;99.90;;;;;;5005610;28;20604;-66
2022/11/24 01:00:25;;;;;;;26.57;13.97;;;-0.40;99.90;;;;;;5004765;28;20245;-66
2022/11/24 01:02:53;;;;;;;26.40;14.50;;;-0.40;99.90;;;;;;5007979;28;20223;-65
2022/11/24 01:05:20;;;;;;;21.30;12.23;;;-0.40;99.90;;;;;;5008402;28;20211;-65
2022/11/24 01:07:47;;;;;;;28.37;13.33;;;-0.40;99.90;;;;;;5007562;28;20231;-65
2022/11/24 01:10:13;;;;;;;26.87;13.57;;;-0.40;99.90;;;;;;5007459;28;20211;-65
2022/11/24 01:12:40;;;;;;;24.53;13.63;;;-0.30;99.90;;;;;;5007825;28;20203;-66
2022/11/24 01:15:08;;;;;;;23.67;13.37;;;-0.30;99.90;;;;;;5006468;28;20377;-65
2022/11/24 01:17:34;;;;;;;23.77;13.37;;;-0.30;99.90;;;;;;5008514;28;20218;-66
2022/11/24 01:20:03;;;;;;;27.93;13.80;;;-0.30;99.90;;;;;;5011114;28;20652;-65
2022/11/24 01:22:31;;;;;;;27.13;14.57;;;-0.30;99.90;;;;;;5011020;28;20229;-64
2022/11/24 01:24:57;;;;;;;29.37;14.10;;;-0.30;99.90;;;;;;5011905;28;20269;-66
2022/11/24 01:27:24;;;;;;;27.87;14.30;;;-0.30;99.90;;;;;;5010782;28;20675;-66
2022/11/24 01:29:51;;;;;;;30.17;14.93;;;-0.20;99.90;;;;;;5000873;28;20212;-65
2022/11/24 01:32:18;;;;;;;29.23;15.17;;;-0.30;99.90;;;;;;5011446;28;20207;-64
2022/11/24 01:34:44;;;;;;;31.10;15.80;;;-0.20;99.90;;;;;;5010907;28;20632;-65
2022/11/24 01:37:12;;;;;;;35.23;15.20;;;-0.20;99.90;;;;;;5010789;28;20215;-65
2022/11/24 01:39:39;;;;;;;34.23;15.70;;;-0.20;99.90;;;;;;5007309;28;20257;-66
2022/11/24 01:42:06;;;;;;;32.67;15.53;;;-0.30;99.90;;;;;;5010469;28;20656;-66
2022/11/24 01:44:33;;;;;;;31.00;15.93;;;-0.30;99.90;;;;;;5009556;28;20206;-65
2022/11/24 01:47:02;;;;;;;26.80;14.23;;;-0.30;99.90;;;;;;5010149;28;20717;-65
2022/11/24 01:49:37;;;;;;;27.20;13.50;;;-0.30;99.90;;;;;;5003341;28;20208;-65
2022/11/24 01:52:08;;;;;;;28.40;13.90;;;-0.30;99.90;;;;;;5010464;28;20211;-65
2022/11/24 01:54:41;;;;;;;25.93;13.97;;;-0.30;99.90;;;;;;5011310;28;20200;-66
2022/11/24 01:57:13;;;;;;;28.70;14.50;;;-0.30;99.90;;;;;;5005917;28;20199;-64
2022/11/24 01:59:40;;;;;;;26.70;14.00;;;-0.30;99.90;;;;;;5007228;28;20235;-66
2022/11/24 02:02:08;;;;;;;31.77;14.07;;;-0.30;99.90;;;;;;5010770;28;20219;-65
2022/11/24 02:04:36;;;;;;;26.90;13.53;;;-0.30;99.90;;;;;;5010447;28;20254;-65
2022/11/24 02:07:05;;;;;;;24.43;12.67;;;-0.20;99.90;;;;;;5009441;28;20329;-64
2022/11/24 02:09:37;;;;;;;21.03;12.23;;;-0.20;99.90;;;;;;5010774;28;20282;-65
2022/11/24 02:12:06;;;;;;;21.80;12.10;;;-0.20;99.90;;;;;;5009060;28;20283;-66
2022/11/24 02:14:35;;;;;;;24.93;13.13;;;-0.20;99.90;;;;;;5010122;28;20199;-66
2022/11/24 02:17:02;;;;;;;22.10;12.57;;;-0.20;99.90;;;;;;5009598;28;20207;-65
2022/11/24 02:19:41;;;;;;;23.63;13.27;;;-0.20;99.90;;;;;;5009937;28;20230;-66
2022/11/24 02:22:15;;;;;;;23.37;12.40;;;-0.20;99.90;;;;;;5009052;28;20560;-65
2022/11/24 02:24:49;;;;;;;23.00;13.00;;;-0.20;99.90;;;;;;5009467;28;20538;-65
2022/11/24 02:27:19;;;;;;;24.07;12.77;;;-0.20;99.90;;;;;;5009406;28;20655;-66
2022/11/24 02:29:46;;;;;;;23.77;13.20;;;-0.20;99.90;;;;;;5010425;28;20648;-65
2022/11/24 02:32:14;;;;;;;21.50;11.90;;;-0.20;99.90;;;;;;5010490;28;20210;-65
2022/11/24 02:34:40;;;;;;;22.80;12.10;;;-0.20;99.90;;;;;;5010597;28;20663;-64
2022/11/24 02:37:07;;;;;;;18.70;10.93;;;-0.20;99.90;;;;;;5006357;28;20230;-64
2022/11/24 02:39:34;;;;;;;22.57;10.83;;;-0.20;99.90;;;;;;5009944;28;20614;-65
2022/11/24 02:42:05;;;;;;;18.33;10.80;;;-0.20;99.90;;;;;;5008417;28;20810;-65
2022/11/24 02:44:38;;;;;;;15.50;10.40;;;-0.20;99.90;;;;;;5009181;28;20330;-66
2022/11/24 02:47:06;;;;;;;18.23;9.73;;;-0.20;99.90;;;;;;5009837;28;20215;-66
2022/11/24 02:49:33;;;;;;;20.27;10.73;;;-0.20;99.90;;;;;;5009304;28;20212;-65
2022/11/24 02:52:00;;;;;;;19.03;10.17;;;-0.20;99.90;;;;;;5009618;28;20575;-65
2022/11/24 02:54:27;;;;;;;15.50;9.10;;;-0.20;99.90;;;;;;5009532;28;20214;-65
2022/11/24 02:56:54;;;;;;;18.73;10.10;;;-0.20;99.90;;;;;;5007895;28;20215;-65
2022/11/24 02:59:21;;;;;;;18.33;9.97;;;-0.20;99.90;;;;;;5006791;28;20254;-63
2022/11/24 03:01:49;;;;;;;18.83;10.37;;;-0.20;99.90;;;;;;5010195;28;20226;-65
2022/11/24 03:04:16;;;;;;;15.70;9.90;;;-0.20;99.90;;;;;;5009628;28;20218;-66
2022/11/24 03:06:43;;;;;;;18.53;9.60;;;-0.20;99.90;;;;;;5009313;28;20203;-66
2022/11/24 03:09:10;;;;;;;15.93;9.27;;;-0.20;99.90;;;;;;5007627;28;20297;-65
2022/11/24 03:11:37;;;;;;;14.43;9.03;;;-0.20;99.90;;;;;;5008549;28;20215;-66
2022/11/24 03:14:04;;;;;;;14.13;8.40;;;-0.20;99.90;;;;;;5009352;28;20302;-66
2022/11/24 03:16:32;;;;;;;15.53;9.17;;;-0.20;99.90;;;;;;5008155;28;20215;-65
2022/11/24 03:19:00;;;;;;;15.93;9.27;;;-0.10;99.90;;;;;;5009517;28;20225;-66
2022/11/24 03:21:27;;;;;;;14.87;8.53;;;-0.20;99.90;;;;;;5009352;28;20207;-64
2022/11/24 03:23:53;;;;;;;14.87;9.13;;;-0.20;99.90;;;;;;5009441;28;20215;-67
2022/11/24 03:26:23;;;;;;;14.00;7.93;;;-0.20;99.90;;;;;;5005815;28;20207;-65
2022/11/24 03:28:52;;;;;;;13.57;7.73;;;-0.10;99.90;;;;;;5004487;28;20653;-64
2022/11/24 03:31:19;;;;;;;15.23;8.50;;;-0.10;99.90;;;;;;5007541;28;20211;-64
2022/11/24 03:33:46;;;;;;;12.97;7.90;;;-0.10;99.90;;;;;;5007623;28;20214;-64
2022/11/24 03:36:14;;;;;;;11.83;8.03;;;-0.10;99.90;;;;;;5007449;28;20257;-64
2022/11/24 03:38:41;;;;;;;13.20;7.70;;;-0.10;99.90;;;;;;5001040;28;20241;-66
2022/11/24 03:41:07;;;;;;;12.97;7.80;;;-0.20;99.90;;;;;;5006786;28;20199;-65
2022/11/24 03:43:34;;;;;;;12.30;7.50;;;-0.20;99.90;;;;;;5009233;28;20253;-64
2022/11/24 03:46:01;;;;;;;11.90;7.33;;;-0.20;99.90;;;;;;5007583;28;20211;-64
2022/11/24 03:48:28;;;;;;;14.43;8.23;;;-0.10;99.90;;;;;;5006985;28;20218;-64
2022/11/24 03:50:55;;;;;;;12.80;8.17;;;-0.20;99.90;;;;;;5009478;28;20203;-65
2022/11/24 03:53:25;;;;;;;13.17;7.83;;;-0.20;99.90;;;;;;5009166;28;20204;-65
2022/11/24 03:55:52;;;;;;;15.57;7.87;;;-0.20;99.90;;;;;;5005518;28;20211;-64
2022/11/24 03:58:19;;;;;;;13.53;8.17;;;-0.10;99.90;;;;;;5008606;28;20217;-66
2022/11/24 04:00:46;;;;;;;11.67;8.07;;;-0.10;99.90;;;;;;5008869;28;20231;-65
2022/11/24 04:03:12;;;;;;;13.00;7.93;;;-0.20;99.90;;;;;;5006948;28;20215;-64
2022/11/24 04:05:39;;;;;;;14.87;8.63;;;-0.10;99.90;;;;;;5008107;28;20208;-66
2022/11/24 04:08:06;;;;;;;13.00;7.93;;;-0.20;99.90;;;;;;5007757;28;20314;-63
2022/11/24 04:10:36;;;;;;;14.70;8.50;;;-0.20;99.90;;;;;;5007413;28;20212;-66
2022/11/24 04:13:02;;;;;;;15.03;8.40;;;-0.20;99.90;;;;;;5009119;28;20199;-65
2022/11/24 04:15:29;;;;;;;15.73;9.03;;;-0.20;99.90;;;;;;5008174;28;20285;-67
2022/11/24 04:17:57;;;;;;;13.87;8.50;;;-0.20;99.90;;;;;;5005388;28;20222;-66
2022/11/24 04:20:23;;;;;;;15.50;8.60;;;-0.20;99.90;;;;;;5004319;28;20207;-65
2022/11/24 04:22:50;;;;;;;12.50;7.67;;;-0.20;99.90;;;;;;5005808;28;20242;-64
2022/11/24 04:25:17;;;;;;;13.67;7.60;;;-0.20;99.90;;;;;;5008433;28;20253;-65
2022/11/24 04:27:50;;;;;;;13.73;7.83;;;-0.20;99.90;;;;;;4997337;28;20203;-65
2022/11/24 04:30:18;;;;;;;13.27;7.53;;;-0.20;99.90;;;;;;5008967;28;20642;-66
2022/11/24 04:32:44;;;;;;;15.60;8.10;;;-0.10;99.90;;;;;;5008086;28;20653;-64
2022/11/24 04:35:11;;;;;;;16.60;8.40;;;-0.20;99.90;;;;;;5007695;28;20219;-64
2022/11/24 04:37:38;;;;;;;13.83;7.53;;;-0.20;99.90;;;;;;5006177;28;20214;-64
2022/11/24 04:40:07;;;;;;;13.47;8.27;;;-0.20;99.90;;;;;;5007471;28;20261;-66
2022/11/24 04:42:34;;;;;;;13.43;7.77;;;-0.20;99.90;;;;;;5007403;28;20236;-65
2022/11/24 04:45:02;;;;;;;14.60;8.23;;;0.00;99.90;;;;;;5006476;28;20215;-64
2022/11/24 04:47:29;;;;;;;13.20;7.93;;;-0.20;99.90;;;;;;5007857;28;20218;-65
2022/11/24 04:49:56;;;;;;;13.00;7.73;;;-0.20;99.90;;;;;;5008231;28;20222;-65
2022/11/24 04:52:24;;;;;;;16.63;8.40;;;-0.20;99.90;;;;;;5009724;28;20774;-65
2022/11/24 04:54:51;;;;;;;13.37;7.83;;;-0.20;99.90;;;;;;5009833;28;20214;-66
2022/11/24 04:57:20;;;;;;;13.90;8.03;;;-0.20;99.90;;;;;;5010699;28;20199;-64
2022/11/24 04:59:47;;;;;;;14.53;8.20;;;-0.30;99.90;;;;;;5011654;28;20234;-66
2022/11/24 05:02:15;;;;;;;13.70;7.90;;;-0.20;99.90;;;;;;5010934;28;20722;-65
2022/11/24 05:04:42;;;;;;;13.00;7.20;;;-0.20;99.90;;;;;;5011999;28;20215;-67
2022/11/24 05:07:11;;;;;;;15.90;9.03;;;-0.20;99.90;;;;;;5010460;28;20211;-65
2022/11/24 05:10:33;;;;;;;13.40;7.73;;;-0.20;99.90;;;;;;5011904;28;20567;-63
2022/11/24 05:12:29;;;;;;;13.03;8.00;;;-0.20;99.90;;;;;;5011428;28;20286;-65
2022/11/24 05:14:56;;;;;;;11.77;7.77;;;-0.20;99.90;;;;;;5010697;28;20207;-65
2022/11/24 05:17:25;;;;;;;10.87;6.90;;;-0.20;99.90;;;;;;5004193;28;20204;-65
2022/11/24 05:19:51;;;;;;;14.67;7.33;;;-0.20;99.90;;;;;;5003439;28;20214;-64
2022/11/24 05:22:18;;;;;;;13.57;7.80;;;-0.10;99.90;;;;;;5011174;28;20846;-65
2022/11/24 05:24:45;;;;;;;14.23;8.30;;;-0.10;99.90;;;;;;5012117;28;20214;-65
2022/11/24 05:27:12;;;;;;;16.50;8.70;;;-0.20;99.90;;;;;;5010143;28;20207;-65
2022/11/24 05:29:38;;;;;;;13.47;8.33;;;-0.10;99.90;;;;;;5009452;28;20203;-66
2022/11/24 05:32:05;;;;;;;12.90;7.17;;;-0.10;99.90;;;;;;5010519;28;20207;-65
2022/11/24 05:34:34;;;;;;;14.60;8.40;;;-0.20;99.90;;;;;;5011492;28;20302;-66
2022/11/24 05:37:02;;;;;;;17.50;8.63;;;-0.10;99.90;;;;;;5011683;28;20211;-65
2022/11/24 05:39:29;;;;;;;14.33;7.97;;;-0.10;99.90;;;;;;5009898;28;20231;-66
2022/11/24 05:41:56;;;;;;;16.77;9.73;;;-0.10;99.90;;;;;;5007897;28;20633;-65
2022/11/24 05:44:23;;;;;;;14.33;8.13;;;-0.10;99.90;;;;;;5009783;28;20714;-65
2022/11/24 05:46:49;;;;;;;15.40;8.43;;;-0.10;99.90;;;;;;5011257;28;20204;-67
2022/11/24 05:49:16;;;;;;;13.60;7.83;;;-0.10;99.90;;;;;;5010005;28;20206;-65
2022/11/24 05:51:44;;;;;;;13.60;8.53;;;-0.10;99.90;;;;;;5010164;28;20583;-64
2022/11/24 05:54:11;;;;;;;15.17;8.47;;;0.00;99.90;;;;;;5011654;28;20234;-66
2022/11/24 05:56:38;;;;;;;15.97;8.67;;;0.00;99.90;;;;;;5009397;28;20211;-65
2022/11/24 05:59:04;;;;;;;14.30;8.13;;;0.00;99.90;;;;;;5008928;28;20211;-67
2022/11/24 06:01:31;;;;;;;16.90;8.93;;;0.50;99.90;;;;;;5008793;28;20219;-66
2022/11/24 06:03:58;;;;;;;14.37;8.67;;;0.00;99.90;;;;;;5010276;28;20238;-64
2022/11/24 06:06:25;;;;;;;15.03;7.97;;;0.10;99.90;;;;;;5008467;28;20648;-66
2022/11/24 06:08:53;;;;;;;16.53;8.67;;;0.10;99.90;;;;;;5009675;28;20651;-66
2022/11/24 06:11:19;;;;;;;17.43;8.77;;;0.10;99.90;;;;;;5009370;28;20226;-66
2022/11/24 06:13:48;;;;;;;16.60;9.03;;;0.10;99.90;;;;;;5010606;28;20299;-66
2022/11/24 06:16:15;;;;;;;15.83;8.23;;;0.10;99.90;;;;;;5005976;28;20239;-68
2022/11/24 06:18:41;;;;;;;18.53;9.77;;;0.10;99.90;;;;;;5008022;28;20214;-65
2022/11/24 06:21:08;;;;;;;14.70;8.70;;;0.10;99.90;;;;;;5006661;28;20943;-65
2022/11/24 06:23:35;;;;;;;18.13;9.33;;;0.10;99.90;;;;;;5008868;28;20223;-65
2022/11/24 06:26:04;;;;;;;16.07;8.97;;;0.10;99.90;;;;;;5005133;28;20222;-64
2022/11/24 06:28:31;;;;;;;15.67;9.37;;;0.20;99.90;;;;;;5010854;28;20212;-65
2022/11/24 06:31:01;;;;;;;17.43;9.83;;;0.20;99.90;;;;;;5008568;28;20216;-65
2022/11/24 06:33:32;;;;;;;16.17;9.53;;;0.20;99.90;;;;;;5012123;28;20212;-68
2022/11/24 06:36:01;;;;;;;18.37;9.67;;;0.20;99.90;;;;;;5007410;28;20207;-66
2022/11/24 06:38:28;;;;;;;17.17;9.10;;;0.20;99.90;;;;;;5008872;28;20302;-64
2022/11/24 06:41:00;;;;;;;13.63;8.57;;;0.20;99.90;;;;;;5008800;28;20679;-66
2022/11/24 06:43:30;;;;;;;18.30;11.25;;;0.30;99.90;;;;;;5005136;28;20549;-66
2022/11/24 06:45:57;;;;;;;14.57;9.23;;;0.20;99.90;;;;;;5005821;28;20211;-65
2022/11/24 06:48:25;;;;;;;15.07;9.37;;;0.20;99.90;;;;;;5000497;28;20203;-65
2022/11/24 06:50:52;;;;;;;15.13;9.17;;;0.20;99.90;;;;;;5007331;28;20207;-65
2022/11/24 06:53:19;;;;;;;18.43;9.27;;;0.20;99.90;;;;;;5008443;28;20204;-67
2022/11/24 06:55:46;;;;;;;21.23;11.53;;;0.20;99.90;;;;;;5012550;28;20203;-72
2022/11/24 06:58:13;;;;;;;15.90;9.30;;;0.20;99.90;;;;;;5007926;28;20207;-67
2022/11/24 07:00:41;;;;;;;15.10;9.00;;;0.20;99.90;;;;;;5008555;28;20223;-68
2022/11/24 07:03:15;;;;;;;16.87;8.47;;;0.20;99.90;;;;;;5007862;28;20219;-76
2022/11/24 07:05:43;;;;;;;18.27;10.17;;;0.30;99.90;;;;;;5014328;28;20571;-66
2022/11/24 07:08:09;;;;;;;17.33;10.10;;;0.30;99.90;;;;;;5012927;28;20207;-70
2022/11/24 07:10:37;;;;;;;17.13;9.83;;;0.30;99.90;;;;;;5012238;28;20206;-71
2022/11/24 07:13:06;;;;;;;17.60;9.63;;;0.20;99.90;;;;;;5012754;28;20206;-73
2022/11/24 07:15:33;;;;;;;17.30;9.87;;;0.20;99.90;;;;;;5009419;28;20206;-65
2022/11/24 07:18:01;;;;;;;16.67;9.53;;;0.20;99.90;;;;;;5009168;28;20571;-65
2022/11/24 07:20:28;;;;;;;16.57;10.00;;;0.20;99.90;;;;;;5004672;28;20210;-65
2022/11/24 07:22:56;;;;;;;15.97;9.90;;;0.20;99.90;;;;;;5010230;28;20230;-65
2022/11/24 07:25:23;;;;;;;17.97;9.33;;;0.20;99.90;;;;;;5012122;28;20203;-63
2022/11/24 07:27:49;;;;;;;15.43;8.80;;;0.20;99.90;;;;;;5013837;28;20203;-61
2022/11/24 07:30:17;;;;;;;15.13;9.37;;;0.20;99.90;;;;;;5011271;28;20211;-64
2022/11/24 07:32:43;;;;;;;16.07;9.53;;;0.20;99.90;;;;;;5008425;28;20294;-64
2022/11/24 07:35:12;;;;;;;17.03;9.80;;;0.20;99.90;;;;;;5010848;28;20212;-62
2022/11/24 07:37:38;;;;;;;14.80;8.97;;;0.20;99.90;;;;;;5009168;28;20215;-64
2022/11/24 07:40:06;;;;;;;13.03;8.53;;;0.20;99.90;;;;;;5002429;28;20239;-64
2022/11/24 07:42:33;;;;;;;15.23;9.63;;;0.30;99.90;;;;;;5010477;28;20652;-62
2022/11/24 07:45:00;;;;;;;15.37;8.77;;;0.20;99.90;;;;;;5012784;28;20237;-66
2022/11/24 07:47:27;;;;;;;13.40;7.70;;;0.30;99.90;;;;;;5010691;28;20882;-65
2022/11/24 07:49:53;;;;;;;16.17;8.93;;;0.30;99.90;;;;;;5009458;28;20550;-64
2022/11/24 07:52:25;;;;;;;17.27;8.53;;;0.30;99.90;;;;;;5008874;28;20211;-64
2022/11/24 07:54:52;;;;;;;13.70;7.97;;;0.30;99.90;;;;;;5007552;28;20225;-64
2022/11/24 07:57:18;;;;;;;17.13;9.23;;;0.30;99.90;;;;;;5009663;28;20633;-64
2022/11/24 07:59:45;;;;;;;13.90;7.80;;;0.30;99.90;;;;;;5013261;28;20599;-66
2022/11/24 08:02:13;;;;;;;13.37;7.87;;;0.40;99.90;;;;;;5014492;28;20207;-64
2022/11/24 08:04:39;;;;;;;17.80;9.27;;;0.40;99.90;;;;;;5018715;28;20269;-63
2022/11/24 08:07:06;;;;;;;14.90;8.47;;;0.40;99.90;;;;;;5017507;28;20207;-64
2022/11/24 08:09:34;;;;;;;12.23;8.00;;;0.40;99.90;;;;;;5018743;28;20216;-66
2022/11/24 08:12:01;;;;;;;14.50;7.93;;;0.40;99.90;;;;;;5019972;28;20214;-66
2022/11/24 08:14:28;;;;;;;14.87;9.03;;;0.40;99.90;;;;;;5018928;28;20694;-64
2022/11/24 08:16:55;;;;;;;14.80;8.40;;;0.50;99.90;;;;;;5021342;28;20599;-65
2022/11/24 08:19:22;;;;;;;13.50;7.47;;;0.50;99.90;;;;;;5019887;28;20203;-66
2022/11/24 08:21:49;;;;;;;14.00;7.97;;;0.50;99.90;;;;;;5021068;28;20217;-65
2022/11/24 08:24:15;;;;;;;13.23;8.37;;;0.50;99.90;;;;;;5018073;28;20218;-67
2022/11/24 08:26:44;;;;;;;21.17;8.97;;;0.60;99.90;;;;;;5018327;28;20660;-69
2022/11/24 08:29:11;;;;;;;13.60;8.50;;;0.60;99.90;;;;;;5023384;28;20211;-67
2022/11/24 08:31:39;;;;;;;12.07;7.70;;;0.60;99.90;;;;;;5028165;28;20209;-66
2022/11/24 08:34:06;;;;;;;12.10;7.97;;;0.60;99.90;;;;;;5027931;28;20492;-66
2022/11/24 08:36:34;;;;;;;11.17;7.07;;;0.60;99.90;;;;;;5028884;28;20211;-66
2022/11/24 08:39:01;;;;;;;11.93;7.97;;;0.60;99.90;;;;;;5027657;28;20564;-65
2022/11/24 08:41:29;;;;;;;15.77;7.73;;;0.60;99.90;;;;;;5027407;28;20206;-66
2022/11/24 08:43:57;;;;;;;15.97;8.00;;;0.60;99.90;;;;;;5028192;28;20230;-64
2022/11/24 08:46:24;;;;;;;18.97;7.97;;;0.60;99.90;;;;;;5027781;28;20218;-66
2022/11/24 08:48:52;;;;;;;12.77;7.30;;;0.60;99.90;;;;;;5026494;28;20218;-67
2022/11/24 08:51:21;;;;;;;12.27;7.27;;;0.60;99.90;;;;;;5029016;28;20195;-64
2022/11/24 08:53:48;;;;;;;10.20;7.03;;;0.60;99.90;;;;;;5024514;28;20270;-67
2022/11/24 08:56:15;;;;;;;11.80;7.50;;;0.60;99.90;;;;;;5026877;28;20233;-64
2022/11/24 08:58:42;;;;;;;13.17;8.00;;;0.60;99.90;;;;;;5026415;28;20204;-65
2022/11/24 09:01:12;;;;;;;13.23;7.77;;;0.60;99.90;;;;;;5028014;28;20230;-64
2022/11/24 09:03:39;;;;;;;15.20;7.83;;;0.70;99.90;;;;;;5029123;28;20230;-66
2022/11/24 09:06:07;;;;;;;12.90;7.63;;;1.00;99.90;;;;;;5027413;28;20245;-68
2022/11/24 09:08:35;;;;;;;12.43;7.47;;;0.70;99.90;;;;;;5025327;28;20225;-64
2022/11/24 09:11:02;;;;;;;13.80;8.00;;;0.70;99.90;;;;;;5022845;28;20215;-69
2022/11/24 09:13:29;;;;;;;15.95;10.30;;;0.70;99.90;;;;;;5018439;28;20465;-68
2022/11/24 09:15:56;;;;;;;16.80;8.57;;;0.70;99.90;;;;;;5018612;28;20227;-64
2022/11/24 09:18:24;;;;;;;13.23;8.60;;;0.70;99.90;;;;;;5024116;28;20199;-64
2022/11/24 09:20:51;;;;;;;16.53;8.13;;;0.70;99.90;;;;;;5024216;28;20222;-68
2022/11/24 09:23:18;;;;;;;16.00;10.50;;;0.80;99.90;;;;;;5021449;28;20465;-68
2022/11/24 09:25:45;;;;;;;15.98;9.73;;;0.80;99.90;;;;;;5019672;28;20462;-70
2022/11/24 09:28:11;;;;;;;13.30;8.63;;;0.80;99.90;;;;;;5012040;28;20215;-68
2022/11/24 09:30:38;;;;;;;13.20;8.23;;;0.80;99.90;;;;;;5014579;28;20211;-76
2022/11/24 09:33:05;;;;;;;15.43;8.67;;;0.90;99.90;;;;;;5020482;28;20218;-66
2022/11/24 09:35:36;;;;;;;12.70;7.93;;;0.90;99.90;;;;;;5032063;28;20207;-70
2022/11/24 09:38:03;;;;;;;13.33;8.23;;;0.90;99.90;;;;;;5030499;28;20203;-67
2022/11/24 09:40:30;;;;;;;12.67;7.80;;;0.90;99.90;;;;;;5035176;28;20215;-68
2022/11/24 09:43:03;;;;;;;12.13;7.93;;;0.90;99.90;;;;;;5032105;28;20203;-66
2022/11/24 09:45:42;;;;;;;13.37;7.67;;;0.90;99.90;;;;;;5032830;28;20238;-69
2022/11/24 09:48:14;;;;;;;14.37;8.23;;;0.90;99.90;;;;;;5034056;28;20211;-66
2022/11/24 09:50:46;;;;;;;16.43;8.33;;;0.90;99.90;;;;;;5025599;28;20259;-66
2022/11/24 09:53:19;;;;;;;13.03;8.07;;;0.90;99.90;;;;;;5027382;28;20196;-65
2022/11/24 09:55:49;;;;;;;12.83;7.93;;;1.00;99.90;;;;;;5025699;28;20215;-67
2022/11/24 09:58:38;;;;;;;12.57;8.37;;;1.00;99.90;;;;;;5023262;28;20199;-68
2022/11/24 10:01:11;;;;;;;15.80;8.77;;;1.00;99.90;;;;;;5026256;28;20250;-68
2022/11/24 10:03:42;;;;;;;14.43;8.87;;;1.00;99.90;;;;;;5021584;28;20203;-67
2022/11/24 10:06:23;;;;;;;13.20;7.87;;;1.00;99.90;;;;;;5030510;28;20199;-67
2022/11/24 10:09:09;;;;;;;13.57;8.73;;;1.00;99.90;;;;;;5025687;28;20207;-67
2022/11/24 10:11:40;;;;;;;13.43;8.00;;;1.00;99.90;;;;;;5034574;28;20374;-68
2022/11/24 10:14:41;;;;;;;14.40;8.87;;;1.00;99.90;;;;;;5034383;28;20191;-69
2022/11/24 10:17:19;;;;;;;15.60;9.33;;;1.10;99.90;;;;;;5020015;28;20334;-67
2022/11/24 10:19:50;;;;;;;16.63;9.33;;;1.10;99.90;;;;;;5018875;28;20207;-69
2022/11/24 10:22:35;;;;;;;17.50;9.30;;;1.10;99.90;;;;;;5029198;28;20196;-67
2022/11/24 10:25:09;;;;;;;22.90;9.97;;;1.10;99.90;;;;;;5010399;28;20603;-66
2022/11/24 10:27:41;;;;;;;13.97;9.00;;;1.10;99.90;;;;;;5029961;28;20202;-68
2022/11/24 10:30:18;;;;;;;15.70;9.13;;;1.10;99.90;;;;;;5030169;28;20214;-70
2022/11/24 10:32:55;;;;;;;17.07;10.33;;;1.20;99.90;;;;;;5024420;28;20199;-67
2022/11/24 10:35:26;;;;;;;14.97;9.00;;;1.10;99.90;;;;;;5028234;28;20207;-68
2022/11/24 10:38:02;;;;;;;15.67;9.27;;;1.20;99.90;;;;;;5029270;28;20226;-65
2022/11/24 10:40:39;;;;;;;14.47;9.10;;;1.20;99.90;;;;;;5029319;28;20269;-71
2022/11/24 10:43:09;;;;;;;16.57;9.60;;;1.30;99.90;;;;;;5029084;28;20207;-72
2022/11/24 10:45:38;;;;;;;17.90;9.60;;;1.30;99.90;;;;;;5018854;28;20226;-66
2022/11/24 10:48:08;;;;;;;16.73;9.73;;;1.30;99.90;;;;;;5020412;28;20211;-66
2022/11/24 10:50:38;;;;;;;14.07;9.33;;;1.40;99.90;;;;;;5023898;28;20207;-67
2022/11/24 10:53:16;;;;;;;14.23;9.43;;;1.40;99.90;;;;;;5022037;28;20207;-65
2022/11/24 10:56:01;;;;;;;14.40;9.87;;;1.50;99.90;;;;;;5024012;28;20230;-69
2022/11/24 10:58:29;;;;;;;16.50;9.73;;;1.40;99.90;;;;;;5022329;28;20203;-64
2022/11/24 11:00:58;;;;;;;14.37;9.17;;;1.40;99.90;;;;;;5025206;28;20790;-66
2022/11/24 11:03:27;;;;;;;17.27;9.77;;;1.50;99.90;;;;;;5028922;28;20206;-70
2022/11/24 11:05:56;;;;;;;14.00;9.33;;;1.50;99.90;;;;;;5033174;28;20223;-69
2022/11/24 11:08:29;;;;;;;16.00;9.30;;;1.50;99.90;;;;;;5026996;28;20199;-67
2022/11/24 11:11:16;;;;;;;16.17;8.73;;;1.50;99.90;;;;;;5023944;28;20241;-73
2022/11/24 11:13:55;;;;;;;14.43;9.03;;;1.50;99.90;;;;;;5028303;28;20275;-70
2022/11/24 11:16:32;;;;;;;17.63;9.07;;;1.50;99.90;;;;;;5032508;28;20218;-67
2022/11/24 11:19:00;;;;;;;16.20;9.40;;;1.50;99.90;;;;;;5032240;28;20209;-67
2022/11/24 11:21:36;;;;;;;16.03;9.37;;;1.50;99.90;;;;;;5033429;28;20208;-69
2022/11/24 11:24:14;;;;;;;17.13;10.20;;;1.50;99.90;;;;;;5031064;28;20206;-70
2022/11/24 11:26:41;;;;;;;16.47;9.30;;;1.40;99.90;;;;;;5031591;28;20179;-70
2022/11/24 11:29:18;;;;;;;13.80;9.07;;;1.40;99.90;;;;;;5029801;28;20242;-68
2022/11/24 11:31:58;;;;;;;17.33;9.77;;;1.40;99.90;;;;;;5033491;28;20198;-69
2022/11/24 11:34:24;;;;;;;15.63;9.60;;;1.40;99.90;;;;;;5033184;28;20199;-70
2022/11/24 11:36:55;;;;;;;15.43;9.37;;;1.40;99.90;;;;;;5026653;28;20227;-66
2022/11/24 11:39:28;;;;;;;20.17;11.40;;;1.40;99.90;;;;;;5023293;28;20270;-66
2022/11/24 11:42:08;;;;;;;17.60;10.40;;;1.50;99.90;;;;;;5031144;28;20203;-66
2022/11/24 11:44:39;;;;;;;24.30;11.33;;;1.60;99.90;;;;;;5028828;28;20221;-66
2022/11/24 11:47:15;;;;;;;22.50;11.53;;;1.60;99.90;;;;;;5029559;28;20198;-68
2022/11/24 11:49:42;;;;;;;22.17;11.47;;;1.70;99.90;;;;;;5030233;28;20206;-67
2022/11/24 11:52:33;;;;;;;24.00;12.57;;;1.90;99.90;;;;;;5029650;28;20298;-67
2022/11/24 11:55:36;;;;;;;21.73;11.90;;;2.00;99.90;;;;;;5016569;28;20213;-65
2022/11/24 11:58:22;;;;;;;18.60;11.33;;;2.20;99.90;;;;;;5030537;28;20207;-68
2022/11/24 12:00:58;;;;;;;18.33;10.50;;;2.20;99.90;;;;;;5028344;28;20234;-68
2022/11/24 12:03:49;;;;;;;19.37;11.13;;;2.20;99.90;;;;;;5028271;28;20199;-67
2022/11/24 12:06:29;;;;;;;18.27;10.47;;;2.20;99.90;;;;;;5030650;28;20226;-66
2022/11/24 12:09:05;;;;;;;19.97;10.47;;;2.20;99.90;;;;;;5031255;28;20207;-65
2022/11/24 12:11:40;;;;;;;18.87;11.13;;;2.20;99.90;;;;;;5030869;28;20199;-66
2022/11/24 12:14:27;;;;;;;20.67;12.00;;;2.30;99.90;;;;;;5027336;28;20230;-70
2022/11/24 12:17:03;;;;;;;19.80;11.20;;;2.30;99.90;;;;;;5031472;28;20207;-67
2022/11/24 12:19:51;;;;;;;20.73;10.60;;;2.30;99.90;;;;;;5029303;28;20242;-66
2022/11/24 12:22:27;;;;;;;19.77;11.77;;;2.30;99.90;;;;;;5026932;28;20210;-68
2022/11/24 12:25:02;;;;;;;20.10;12.40;;;2.30;99.90;;;;;;5030197;28;20452;-69
2022/11/24 12:27:41;;;;;;;21.60;12.23;;;2.30;99.90;;;;;;5031161;28;20216;-69
2022/11/24 12:30:13;;;;;;;17.23;11.03;;;2.30;99.90;;;;;;5029442;28;20207;-69
2022/11/24 12:33:09;;;;;;;17.63;10.73;;;2.30;99.90;;;;;;5030029;28;20218;-70
2022/11/24 12:35:38;;;;;;;18.83;9.43;;;2.40;99.90;;;;;;5031398;28;20204;-68
2022/11/24 12:38:17;;;;;;;18.20;11.53;;;2.30;99.90;;;;;;5030940;28;20625;-68
2022/11/24 12:41:00;;;;;;;21.07;10.70;;;1.20;99.90;;;;;;5029922;28;20219;-67
2022/11/24 12:43:33;;;;;;;19.43;11.77;;;2.30;99.90;;;;;;5030238;28;20207;-69
2022/11/24 12:46:08;;;;;;;21.50;12.20;;;2.30;99.90;;;;;;5030819;28;20225;-64
2022/11/24 12:48:56;;;;;;;20.33;11.70;;;2.30;99.90;;;;;;5020670;28;20203;-66
2022/11/24 12:51:29;;;;;;;20.23;11.83;;;2.30;99.90;;;;;;5030222;28;20203;-67